首页
METAR-TAF:

METAR-TAF

机场 :

卡尔卡松, 法国

纬度: 43-13N, 经度: 002-19E, 海拔: 130米

当前天气观测

该预报发布于37分钟前的08:00 UTC
风速7节,风向西,在西南西转西北之间变化
温度 7°C
湿度 87%
气压 1009 hPa
能见度10公里或以上
阴天层高于1500英尺

METAR: LFMK 170800Z AUTO 27007KT 230V300 9999 OVC015 07/05 Q1009 TEMPO 28025G35KT 2000 SHRA BR SCT010 BKN020TCU

时间: 09:37 (08:37 UTC)

预报

该预报发布于6小时和37分钟前的02:00 UTC
预报有效从17日的 03点(UTC)到 18日的 03点(UTC)
风速15节,风向西,有时为25节阵风
能见度10公里或以上
散云层高于2000英尺
多云层高于4000英尺
短暂存在
从 17日的 04点(UTC)到 17日的 15点(UTC)
风速25节,风向西,有时为35节阵风
能見度: 2000
散云层高于1000英尺
多云层高于2000英尺, 塔状积云.
阵雨, 轻雾
成为
从 17日的 22点(UTC)到 17日的 24点(UTC)
风速3节,风向多变
能見度: 4000
多云层高于800英尺
多云层高于1500英尺

TAF: LFMK 170200Z 1703/1803 28015G25KT 9999 SCT020 BKN040 TEMPO 1704/1715 28025G35KT 2000 SHRA BR SCT010 BKN020TCU BECMG 1722/1724 VRB03KT 4000 RA BKN008 BKN015

超过4000个机场的气象观测和天气预报(METAR&TAF报告)。

可查询的气象台以黄色和红色小点在地图上表示。

将鼠标移到小点上方,可查看气象台名称。

然后点击查看天气观测和预报。

如需切换地图:点击带黑十字的绿色按钮放大地图;点击带横线的绿色按钮缩小地图;或者点击绿色箭头查看邻近地区的地图。


METAR-TAF: